sensor_id;sensor_type;location;lat;lon;timestamp;P1;durP1;ratioP1;P2;durP2;ratioP2
44228;SDS011;29904;51.058;5.378;2023-11-19T00:00:24;5.82;;;2.50;;
44228;SDS011;29904;51.058;5.378;2023-11-19T00:02:50;3.28;;;2.33;;
44228;SDS011;29904;51.058;5.378;2023-11-19T00:05:16;3.25;;;2.10;;
44228;SDS011;29904;51.058;5.378;2023-11-19T00:07:42;3.45;;;2.30;;
44228;SDS011;29904;51.058;5.378;2023-11-19T00:10:12;3.95;;;2.38;;
44228;SDS011;29904;51.058;5.378;2023-11-19T00:12:39;3.00;;;2.00;;
44228;SDS011;29904;51.058;5.378;2023-11-19T00:15:07;4.63;;;2.22;;
44228;SDS011;29904;51.058;5.378;2023-11-19T00:17:37;3.22;;;2.13;;
44228;SDS011;29904;51.058;5.378;2023-11-19T00:20:05;2.90;;;1.98;;
44228;SDS011;29904;51.058;5.378;2023-11-19T00:22:31;3.67;;;1.73;;
44228;SDS011;29904;51.058;5.378;2023-11-19T00:24:57;4.63;;;1.83;;
44228;SDS011;29904;51.058;5.378;2023-11-19T00:27:24;3.17;;;1.70;;
44228;SDS011;29904;51.058;5.378;2023-11-19T00:29:51;3.90;;;1.63;;
44228;SDS011;29904;51.058;5.378;2023-11-19T00:32:17;2.87;;;1.80;;
44228;SDS011;29904;51.058;5.378;2023-11-19T00:34:45;3.57;;;1.73;;
44228;SDS011;29904;51.058;5.378;2023-11-19T00:37:12;3.50;;;1.80;;
44228;SDS011;29904;51.058;5.378;2023-11-19T00:39:41;3.30;;;1.60;;
44228;SDS011;29904;51.058;5.378;2023-11-19T00:42:08;2.92;;;1.58;;
44228;SDS011;29904;51.058;5.378;2023-11-19T00:44:35;3.20;;;1.45;;
44228;SDS011;29904;51.058;5.378;2023-11-19T00:47:01;2.58;;;1.48;;
44228;SDS011;29904;51.058;5.378;2023-11-19T00:49:27;2.40;;;1.38;;
44228;SDS011;29904;51.058;5.378;2023-11-19T00:51:53;4.75;;;1.70;;
44228;SDS011;29904;51.058;5.378;2023-11-19T00:54:19;4.15;;;1.50;;
44228;SDS011;29904;51.058;5.378;2023-11-19T00:56:45;4.40;;;1.40;;
44228;SDS011;29904;51.058;5.378;2023-11-19T00:59:10;2.50;;;1.30;;
44228;SDS011;29904;51.058;5.378;2023-11-19T01:01:36;2.63;;;1.40;;
44228;SDS011;29904;51.058;5.378;2023-11-19T01:04:02;3.33;;;1.27;;
44228;SDS011;29904;51.058;5.378;2023-11-19T01:06:28;3.22;;;1.30;;
44228;SDS011;29904;51.058;5.378;2023-11-19T01:08:55;3.05;;;1.20;;
44228;SDS011;29904;51.058;5.378;2023-11-19T01:11:24;2.80;;;1.17;;
44228;SDS011;29904;51.058;5.378;2023-11-19T01:13:50;3.92;;;1.38;;
44228;SDS011;29904;51.058;5.378;2023-11-19T01:16:17;4.30;;;1.30;;
44228;SDS011;29904;51.058;5.378;2023-11-19T01:18:44;3.42;;;1.10;;
44228;SDS011;29904;51.058;5.378;2023-11-19T01:21:11;4.30;;;1.23;;
44228;SDS011;29904;51.058;5.378;2023-11-19T01:23:37;4.40;;;1.20;;
44228;SDS011;29904;51.058;5.378;2023-11-19T01:26:03;6.20;;;1.20;;
44228;SDS011;29904;51.058;5.378;2023-11-19T01:28:30;4.40;;;1.20;;
44228;SDS011;29904;51.058;5.378;2023-11-19T01:30:56;4.07;;;1.30;;
44228;SDS011;29904;51.058;5.378;2023-11-19T01:33:22;7.30;;;1.45;;
44228;SDS011;29904;51.058;5.378;2023-11-19T01:35:47;6.67;;;1.43;;
44228;SDS011;29904;51.058;5.378;2023-11-19T01:38:13;7.27;;;1.30;;
44228;SDS011;29904;51.058;5.378;2023-11-19T01:40:39;4.80;;;1.30;;
44228;SDS011;29904;51.058;5.378;2023-11-19T01:43:05;8.70;;;1.60;;
44228;SDS011;29904;51.058;5.378;2023-11-19T01:45:31;9.40;;;1.40;;
44228;SDS011;29904;51.058;5.378;2023-11-19T01:47:59;6.05;;;1.30;;
44228;SDS011;29904;51.058;5.378;2023-11-19T01:50:28;7.95;;;1.40;;
44228;SDS011;29904;51.058;5.378;2023-11-19T01:52:56;7.40;;;1.20;;
44228;SDS011;29904;51.058;5.378;2023-11-19T01:55:22;7.63;;;1.48;;
44228;SDS011;29904;51.058;5.378;2023-11-19T01:57:50;6.97;;;1.35;;
44228;SDS011;29904;51.058;5.378;2023-11-19T02:00:18;8.68;;;1.42;;
44228;SDS011;29904;51.058;5.378;2023-11-19T02:02:45;5.68;;;1.27;;
44228;SDS011;29904;51.058;5.378;2023-11-19T02:05:13;6.82;;;1.60;;
44228;SDS011;29904;51.058;5.378;2023-11-19T02:07:39;11.77;;;1.58;;
44228;SDS011;29904;51.058;5.378;2023-11-19T02:10:05;7.88;;;1.60;;
44228;SDS011;29904;51.058;5.378;2023-11-19T02:12:32;8.43;;;1.30;;
44228;SDS011;29904;51.058;5.378;2023-11-19T02:15:01;11.38;;;2.13;;
44228;SDS011;29904;51.058;5.378;2023-11-19T02:17:31;7.40;;;1.60;;
44228;SDS011;29904;51.058;5.378;2023-11-19T02:19:57;8.05;;;1.45;;
44228;SDS011;29904;51.058;5.378;2023-11-19T02:22:23;8.95;;;1.50;;
44228;SDS011;29904;51.058;5.378;2023-11-19T02:24:49;8.98;;;1.75;;
44228;SDS011;29904;51.058;5.378;2023-11-19T02:30:03;9.15;;;1.52;;
44228;SDS011;29904;51.058;5.378;2023-11-19T02:32:33;9.85;;;1.50;;
44228;SDS011;29904;51.058;5.378;2023-11-19T02:35:00;12.57;;;1.90;;
44228;SDS011;29904;51.058;5.378;2023-11-19T02:37:26;10.77;;;1.75;;
44228;SDS011;29904;51.058;5.378;2023-11-19T02:39:53;11.82;;;1.80;;
44228;SDS011;29904;51.058;5.378;2023-11-19T02:42:19;9.00;;;1.70;;
44228;SDS011;29904;51.058;5.378;2023-11-19T02:44:45;13.27;;;2.13;;
44228;SDS011;29904;51.058;5.378;2023-11-19T02:47:11;9.30;;;1.92;;
44228;SDS011;29904;51.058;5.378;2023-11-19T02:49:37;11.85;;;1.77;;
44228;SDS011;29904;51.058;5.378;2023-11-19T02:52:03;11.77;;;1.83;;
44228;SDS011;29904;51.058;5.378;2023-11-19T02:54:30;10.23;;;1.70;;
44228;SDS011;29904;51.058;5.378;2023-11-19T02:57:00;11.40;;;1.70;;
44228;SDS011;29904;51.058;5.378;2023-11-19T02:59:28;11.88;;;1.92;;
44228;SDS011;29904;51.058;5.378;2023-11-19T03:02:03;10.30;;;1.70;;
44228;SDS011;29904;51.058;5.378;2023-11-19T03:04:36;8.88;;;1.80;;
44228;SDS011;29904;51.058;5.378;2023-11-19T03:07:05;13.40;;;2.03;;
44228;SDS011;29904;51.058;5.378;2023-11-19T03:09:34;9.20;;;2.00;;
44228;SDS011;29904;51.058;5.378;2023-11-19T03:12:00;9.23;;;2.10;;
44228;SDS011;29904;51.058;5.378;2023-11-19T03:14:26;11.68;;;2.50;;
44228;SDS011;29904;51.058;5.378;2023-11-19T03:16:52;10.48;;;2.63;;
44228;SDS011;29904;51.058;5.378;2023-11-19T03:19:18;10.98;;;2.15;;
44228;SDS011;29904;51.058;5.378;2023-11-19T03:21:44;13.50;;;2.73;;
44228;SDS011;29904;51.058;5.378;2023-11-19T03:24:10;11.20;;;1.80;;
44228;SDS011;29904;51.058;5.378;2023-11-19T03:26:38;12.85;;;2.33;;
44228;SDS011;29904;51.058;5.378;2023-11-19T03:29:04;9.77;;;2.00;;
44228;SDS011;29904;51.058;5.378;2023-11-19T03:31:29;11.40;;;1.80;;
44228;SDS011;29904;51.058;5.378;2023-11-19T03:33:55;15.75;;;2.25;;
44228;SDS011;29904;51.058;5.378;2023-11-19T03:36:21;13.57;;;2.13;;
44228;SDS011;29904;51.058;5.378;2023-11-19T03:38:47;13.30;;;2.42;;
44228;SDS011;29904;51.058;5.378;2023-11-19T03:41:13;9.70;;;1.83;;
44228;SDS011;29904;51.058;5.378;2023-11-19T03:43:40;14.77;;;2.40;;
44228;SDS011;29904;51.058;5.378;2023-11-19T03:46:18;12.30;;;1.95;;
44228;SDS011;29904;51.058;5.378;2023-11-19T03:48:46;9.50;;;1.80;;
44228;SDS011;29904;51.058;5.378;2023-11-19T03:51:12;12.70;;;1.80;;
44228;SDS011;29904;51.058;5.378;2023-11-19T03:53:43;12.18;;;1.95;;
44228;SDS011;29904;51.058;5.378;2023-11-19T03:56:09;11.15;;;2.00;;
44228;SDS011;29904;51.058;5.378;2023-11-19T03:58:36;12.20;;;2.20;;
44228;SDS011;29904;51.058;5.378;2023-11-19T04:01:03;10.20;;;1.83;;
44228;SDS011;29904;51.058;5.378;2023-11-19T04:03:29;13.65;;;2.05;;
44228;SDS011;29904;51.058;5.378;2023-11-19T04:05:55;15.47;;;2.43;;
44228;SDS011;29904;51.058;5.378;2023-11-19T04:08:21;18.25;;;2.42;;
44228;SDS011;29904;51.058;5.378;2023-11-19T04:10:47;15.32;;;2.25;;
44228;SDS011;29904;51.058;5.378;2023-11-19T04:13:13;11.70;;;1.98;;
44228;SDS011;29904;51.058;5.378;2023-11-19T04:15:39;11.63;;;1.67;;
44228;SDS011;29904;51.058;5.378;2023-11-19T04:18:05;12.93;;;2.22;;
44228;SDS011;29904;51.058;5.378;2023-11-19T04:20:30;13.38;;;2.42;;
44228;SDS011;29904;51.058;5.378;2023-11-19T04:22:56;12.02;;;2.00;;
44228;SDS011;29904;51.058;5.378;2023-11-19T04:25:22;9.93;;;1.85;;
44228;SDS011;29904;51.058;5.378;2023-11-19T04:27:51;13.13;;;2.10;;
44228;SDS011;29904;51.058;5.378;2023-11-19T04:30:17;11.68;;;2.10;;
44228;SDS011;29904;51.058;5.378;2023-11-19T04:32:43;14.57;;;2.30;;
44228;SDS011;29904;51.058;5.378;2023-11-19T04:35:09;13.70;;;2.08;;
44228;SDS011;29904;51.058;5.378;2023-11-19T04:37:35;13.55;;;2.05;;
44228;SDS011;29904;51.058;5.378;2023-11-19T04:40:02;15.27;;;2.40;;
44228;SDS011;29904;51.058;5.378;2023-11-19T04:42:28;12.38;;;2.13;;
44228;SDS011;29904;51.058;5.378;2023-11-19T04:44:54;12.33;;;1.93;;
44228;SDS011;29904;51.058;5.378;2023-11-19T04:47:20;11.50;;;1.97;;
44228;SDS011;29904;51.058;5.378;2023-11-19T04:49:46;12.57;;;2.13;;
44228;SDS011;29904;51.058;5.378;2023-11-19T04:52:12;14.87;;;2.60;;
44228;SDS011;29904;51.058;5.378;2023-11-19T04:54:44;15.63;;;2.27;;
44228;SDS011;29904;51.058;5.378;2023-11-19T04:57:09;16.42;;;2.30;;
44228;SDS011;29904;51.058;5.378;2023-11-19T04:59:38;11.70;;;2.35;;
44228;SDS011;29904;51.058;5.378;2023-11-19T05:02:04;14.67;;;2.20;;
44228;SDS011;29904;51.058;5.378;2023-11-19T05:04:30;13.60;;;2.13;;
44228;SDS011;29904;51.058;5.378;2023-11-19T05:06:56;13.30;;;2.25;;
44228;SDS011;29904;51.058;5.378;2023-11-19T05:09:22;17.05;;;2.53;;
44228;SDS011;29904;51.058;5.378;2023-11-19T05:11:48;12.40;;;2.20;;
44228;SDS011;29904;51.058;5.378;2023-11-19T05:14:13;17.40;;;2.90;;
44228;SDS011;29904;51.058;5.378;2023-11-19T05:16:40;8.82;;;1.70;;
44228;SDS011;29904;51.058;5.378;2023-11-19T05:19:06;13.30;;;2.25;;
44228;SDS011;29904;51.058;5.378;2023-11-19T05:21:32;17.30;;;2.95;;
44228;SDS011;29904;51.058;5.378;2023-11-19T05:23:58;14.90;;;1.92;;
44228;SDS011;29904;51.058;5.378;2023-11-19T05:26:24;15.60;;;2.50;;
44228;SDS011;29904;51.058;5.378;2023-11-19T05:28:49;17.73;;;2.30;;
44228;SDS011;29904;51.058;5.378;2023-11-19T05:31:16;14.10;;;2.63;;
44228;SDS011;29904;51.058;5.378;2023-11-19T05:33:42;16.65;;;2.85;;
44228;SDS011;29904;51.058;5.378;2023-11-19T05:36:10;17.48;;;2.40;;
44228;SDS011;29904;51.058;5.378;2023-11-19T05:38:38;16.23;;;2.63;;
44228;SDS011;29904;51.058;5.378;2023-11-19T05:41:04;22.50;;;2.90;;
44228;SDS011;29904;51.058;5.378;2023-11-19T05:43:30;19.60;;;2.70;;
44228;SDS011;29904;51.058;5.378;2023-11-19T05:45:56;15.97;;;2.70;;
44228;SDS011;29904;51.058;5.378;2023-11-19T05:48:22;14.30;;;2.20;;
44228;SDS011;29904;51.058;5.378;2023-11-19T05:50:47;15.23;;;2.42;;
44228;SDS011;29904;51.058;5.378;2023-11-19T05:53:15;17.23;;;2.78;;
44228;SDS011;29904;51.058;5.378;2023-11-19T05:55:41;17.00;;;2.53;;
44228;SDS011;29904;51.058;5.378;2023-11-19T05:58:19;12.87;;;2.20;;
44228;SDS011;29904;51.058;5.378;2023-11-19T06:00:47;20.75;;;2.70;;
44228;SDS011;29904;51.058;5.378;2023-11-19T06:03:13;18.85;;;2.78;;
44228;SDS011;29904;51.058;5.378;2023-11-19T06:05:39;18.33;;;2.80;;
44228;SDS011;29904;51.058;5.378;2023-11-19T06:08:04;14.67;;;2.10;;
44228;SDS011;29904;51.058;5.378;2023-11-19T06:10:32;16.33;;;2.83;;
44228;SDS011;29904;51.058;5.378;2023-11-19T06:12:58;16.00;;;2.60;;
44228;SDS011;29904;51.058;5.378;2023-11-19T06:15:27;18.47;;;2.47;;
44228;SDS011;29904;51.058;5.378;2023-11-19T06:17:53;19.25;;;2.72;;
44228;SDS011;29904;51.058;5.378;2023-11-19T06:20:20;18.48;;;3.05;;
44228;SDS011;29904;51.058;5.378;2023-11-19T06:22:46;16.10;;;2.95;;
44228;SDS011;29904;51.058;5.378;2023-11-19T06:25:12;18.58;;;2.50;;
44228;SDS011;29904;51.058;5.378;2023-11-19T06:27:40;18.20;;;3.40;;
44228;SDS011;29904;51.058;5.378;2023-11-19T06:30:06;18.20;;;2.70;;
44228;SDS011;29904;51.058;5.378;2023-11-19T06:32:32;20.55;;;3.22;;
44228;SDS011;29904;51.058;5.378;2023-11-19T06:34:58;14.83;;;2.50;;
44228;SDS011;29904;51.058;5.378;2023-11-19T06:37:24;17.60;;;2.83;;
44228;SDS011;29904;51.058;5.378;2023-11-19T06:39:49;19.58;;;4.43;;
44228;SDS011;29904;51.058;5.378;2023-11-19T06:42:15;17.50;;;3.28;;
44228;SDS011;29904;51.058;5.378;2023-11-19T06:44:41;18.70;;;2.65;;
44228;SDS011;29904;51.058;5.378;2023-11-19T06:47:07;16.38;;;2.78;;
44228;SDS011;29904;51.058;5.378;2023-11-19T06:49:33;19.58;;;2.63;;
44228;SDS011;29904;51.058;5.378;2023-11-19T06:51:58;17.53;;;3.10;;
44228;SDS011;29904;51.058;5.378;2023-11-19T06:54:24;22.47;;;3.13;;
44228;SDS011;29904;51.058;5.378;2023-11-19T06:56:50;20.45;;;2.70;;
44228;SDS011;29904;51.058;5.378;2023-11-19T06:59:16;16.42;;;2.42;;
44228;SDS011;29904;51.058;5.378;2023-11-19T07:01:42;17.13;;;2.80;;
44228;SDS011;29904;51.058;5.378;2023-11-19T07:04:11;17.00;;;2.85;;
44228;SDS011;29904;51.058;5.378;2023-11-19T07:06:37;21.42;;;2.78;;
44228;SDS011;29904;51.058;5.378;2023-11-19T07:09:04;14.60;;;2.47;;
44228;SDS011;29904;51.058;5.378;2023-11-19T07:11:43;20.77;;;2.92;;
44228;SDS011;29904;51.058;5.378;2023-11-19T07:14:10;16.63;;;2.55;;
44228;SDS011;29904;51.058;5.378;2023-11-19T07:16:37;18.08;;;2.67;;
44228;SDS011;29904;51.058;5.378;2023-11-19T07:19:04;15.60;;;2.78;;
44228;SDS011;29904;51.058;5.378;2023-11-19T07:21:30;16.25;;;2.75;;
44228;SDS011;29904;51.058;5.378;2023-11-19T07:23:57;15.50;;;2.45;;
44228;SDS011;29904;51.058;5.378;2023-11-19T07:26:23;22.42;;;3.05;;
44228;SDS011;29904;51.058;5.378;2023-11-19T07:28:50;18.88;;;2.90;;
44228;SDS011;29904;51.058;5.378;2023-11-19T07:31:16;15.17;;;2.60;;
44228;SDS011;29904;51.058;5.378;2023-11-19T07:33:44;22.65;;;2.92;;
44228;SDS011;29904;51.058;5.378;2023-11-19T07:36:11;13.80;;;2.90;;
44228;SDS011;29904;51.058;5.378;2023-11-19T07:38:37;22.33;;;3.10;;
44228;SDS011;29904;51.058;5.378;2023-11-19T07:41:03;19.93;;;3.00;;
44228;SDS011;29904;51.058;5.378;2023-11-19T07:43:34;18.63;;;2.47;;
44228;SDS011;29904;51.058;5.378;2023-11-19T07:46:00;17.05;;;2.50;;
44228;SDS011;29904;51.058;5.378;2023-11-19T07:48:26;17.50;;;2.60;;
44228;SDS011;29904;51.058;5.378;2023-11-19T07:50:52;17.77;;;2.90;;
44228;SDS011;29904;51.058;5.378;2023-11-19T07:53:18;18.27;;;3.00;;
44228;SDS011;29904;51.058;5.378;2023-11-19T07:55:45;16.85;;;2.35;;
44228;SDS011;29904;51.058;5.378;2023-11-19T07:58:11;13.77;;;2.30;;
44228;SDS011;29904;51.058;5.378;2023-11-19T08:00:37;14.63;;;2.80;;
44228;SDS011;29904;51.058;5.378;2023-11-19T08:03:03;16.05;;;2.72;;
44228;SDS011;29904;51.058;5.378;2023-11-19T08:05:30;20.70;;;3.17;;
44228;SDS011;29904;51.058;5.378;2023-11-19T08:07:56;15.95;;;2.42;;
44228;SDS011;29904;51.058;5.378;2023-11-19T08:10:23;16.17;;;2.40;;
44228;SDS011;29904;51.058;5.378;2023-11-19T08:12:49;18.77;;;2.67;;
44228;SDS011;29904;51.058;5.378;2023-11-19T08:15:14;17.17;;;2.67;;
44228;SDS011;29904;51.058;5.378;2023-11-19T08:17:41;20.98;;;3.10;;
44228;SDS011;29904;51.058;5.378;2023-11-19T08:20:08;16.45;;;2.63;;
44228;SDS011;29904;51.058;5.378;2023-11-19T08:22:37;19.13;;;3.30;;
44228;SDS011;29904;51.058;5.378;2023-11-19T08:25:06;17.92;;;2.85;;
44228;SDS011;29904;51.058;5.378;2023-11-19T08:27:33;22.02;;;3.13;;
44228;SDS011;29904;51.058;5.378;2023-11-19T08:29:58;16.90;;;2.60;;
44228;SDS011;29904;51.058;5.378;2023-11-19T08:32:25;22.30;;;3.22;;
44228;SDS011;29904;51.058;5.378;2023-11-19T08:34:51;20.67;;;3.13;;
44228;SDS011;29904;51.058;5.378;2023-11-19T08:37:17;21.23;;;3.20;;
44228;SDS011;29904;51.058;5.378;2023-11-19T08:39:45;17.50;;;3.08;;
44228;SDS011;29904;51.058;5.378;2023-11-19T08:42:14;18.65;;;3.15;;
44228;SDS011;29904;51.058;5.378;2023-11-19T08:44:40;19.27;;;3.00;;
44228;SDS011;29904;51.058;5.378;2023-11-19T08:47:09;16.02;;;2.58;;
44228;SDS011;29904;51.058;5.378;2023-11-19T08:49:36;17.63;;;2.85;;
44228;SDS011;29904;51.058;5.378;2023-11-19T08:52:01;17.67;;;3.20;;
44228;SDS011;29904;51.058;5.378;2023-11-19T08:54:27;19.00;;;3.40;;
44228;SDS011;29904;51.058;5.378;2023-11-19T08:56:53;19.50;;;2.97;;
44228;SDS011;29904;51.058;5.378;2023-11-19T08:59:19;17.17;;;3.40;;
44228;SDS011;29904;51.058;5.378;2023-11-19T09:01:44;20.70;;;3.10;;
44228;SDS011;29904;51.058;5.378;2023-11-19T09:04:10;17.23;;;2.90;;
44228;SDS011;29904;51.058;5.378;2023-11-19T09:06:36;16.85;;;3.10;;
44228;SDS011;29904;51.058;5.378;2023-11-19T09:09:02;19.73;;;2.97;;
44228;SDS011;29904;51.058;5.378;2023-11-19T09:11:30;21.17;;;3.40;;
44228;SDS011;29904;51.058;5.378;2023-11-19T09:13:56;19.00;;;3.53;;
44228;SDS011;29904;51.058;5.378;2023-11-19T09:16:22;20.23;;;3.03;;
44228;SDS011;29904;51.058;5.378;2023-11-19T09:18:48;17.17;;;3.30;;
44228;SDS011;29904;51.058;5.378;2023-11-19T09:21:13;15.70;;;2.67;;
44228;SDS011;29904;51.058;5.378;2023-11-19T09:23:39;15.60;;;3.00;;
44228;SDS011;29904;51.058;5.378;2023-11-19T09:26:05;15.55;;;2.55;;
44228;SDS011;29904;51.058;5.378;2023-11-19T09:28:33;15.75;;;2.58;;
44228;SDS011;29904;51.058;5.378;2023-11-19T09:30:58;18.10;;;3.00;;
44228;SDS011;29904;51.058;5.378;2023-11-19T09:33:24;17.63;;;2.95;;
44228;SDS011;29904;51.058;5.378;2023-11-19T09:35:51;14.52;;;2.55;;
44228;SDS011;29904;51.058;5.378;2023-11-19T09:38:17;15.38;;;2.50;;
44228;SDS011;29904;51.058;5.378;2023-11-19T09:40:42;13.75;;;2.50;;
44228;SDS011;29904;51.058;5.378;2023-11-19T09:43:08;16.93;;;2.73;;
44228;SDS011;29904;51.058;5.378;2023-11-19T09:45:47;19.57;;;2.50;;
44228;SDS011;29904;51.058;5.378;2023-11-19T09:48:17;19.25;;;3.00;;
44228;SDS011;29904;51.058;5.378;2023-11-19T09:50:47;15.65;;;3.13;;
44228;SDS011;29904;51.058;5.378;2023-11-19T09:53:14;13.60;;;2.33;;
44228;SDS011;29904;51.058;5.378;2023-11-19T09:55:45;19.80;;;3.45;;
44228;SDS011;29904;51.058;5.378;2023-11-19T09:58:11;18.30;;;3.03;;
44228;SDS011;29904;51.058;5.378;2023-11-19T10:00:39;18.63;;;2.78;;
44228;SDS011;29904;51.058;5.378;2023-11-19T10:03:06;14.48;;;2.50;;
44228;SDS011;29904;51.058;5.378;2023-11-19T10:05:34;13.75;;;2.72;;
44228;SDS011;29904;51.058;5.378;2023-11-19T10:08:01;21.02;;;3.15;;
44228;SDS011;29904;51.058;5.378;2023-11-19T10:10:28;16.42;;;2.60;;
44228;SDS011;29904;51.058;5.378;2023-11-19T10:12:53;16.13;;;2.50;;
44228;SDS011;29904;51.058;5.378;2023-11-19T10:15:21;12.93;;;2.42;;
44228;SDS011;29904;51.058;5.378;2023-11-19T10:17:49;18.60;;;2.50;;
44228;SDS011;29904;51.058;5.378;2023-11-19T10:20:15;16.60;;;2.60;;
44228;SDS011;29904;51.058;5.378;2023-11-19T10:22:41;16.60;;;2.92;;
44228;SDS011;29904;51.058;5.378;2023-11-19T10:27:49;15.52;;;2.58;;
44228;SDS011;29904;51.058;5.378;2023-11-19T10:30:21;14.95;;;2.40;;
44228;SDS011;29904;51.058;5.378;2023-11-19T10:35:30;17.52;;;2.53;;
44228;SDS011;29904;51.058;5.378;2023-11-19T10:37:58;13.07;;;2.03;;
44228;SDS011;29904;51.058;5.378;2023-11-19T10:40:42;13.77;;;2.20;;
44228;SDS011;29904;51.058;5.378;2023-11-19T10:43:08;14.70;;;2.33;;
44228;SDS011;29904;51.058;5.378;2023-11-19T10:45:37;15.10;;;2.90;;
44228;SDS011;29904;51.058;5.378;2023-11-19T10:48:04;16.08;;;2.33;;
44228;SDS011;29904;51.058;5.378;2023-11-19T10:50:36;15.23;;;2.45;;
44228;SDS011;29904;51.058;5.378;2023-11-19T10:53:03;15.32;;;2.70;;
44228;SDS011;29904;51.058;5.378;2023-11-19T10:55:30;12.48;;;2.40;;
44228;SDS011;29904;51.058;5.378;2023-11-19T10:58:04;12.20;;;2.10;;
44228;SDS011;29904;51.058;5.378;2023-11-19T11:00:38;13.55;;;2.65;;
44228;SDS011;29904;51.058;5.378;2023-11-19T11:03:21;13.73;;;2.20;;
44228;SDS011;29904;51.058;5.378;2023-11-19T11:05:50;10.23;;;1.95;;
44228;SDS011;29904;51.058;5.378;2023-11-19T11:08:17;11.93;;;2.33;;
44228;SDS011;29904;51.058;5.378;2023-11-19T11:10:44;14.70;;;2.60;;
44228;SDS011;29904;51.058;5.378;2023-11-19T11:13:13;14.98;;;2.47;;
44228;SDS011;29904;51.058;5.378;2023-11-19T11:15:39;13.93;;;2.42;;
44228;SDS011;29904;51.058;5.378;2023-11-19T11:18:08;9.33;;;2.07;;
44228;SDS011;29904;51.058;5.378;2023-11-19T11:20:34;12.30;;;2.17;;
44228;SDS011;29904;51.058;5.378;2023-11-19T11:25:34;15.97;;;2.60;;
44228;SDS011;29904;51.058;5.378;2023-11-19T11:28:10;13.20;;;2.80;;
44228;SDS011;29904;51.058;5.378;2023-11-19T11:30:53;14.30;;;2.30;;
44228;SDS011;29904;51.058;5.378;2023-11-19T11:36:14;15.32;;;3.00;;
44228;SDS011;29904;51.058;5.378;2023-11-19T11:38:47;19.38;;;3.10;;
44228;SDS011;29904;51.058;5.378;2023-11-19T11:41:15;14.50;;;2.40;;
44228;SDS011;29904;51.058;5.378;2023-11-19T11:43:45;14.05;;;2.50;;
44228;SDS011;29904;51.058;5.378;2023-11-19T11:49:00;15.57;;;2.70;;
44228;SDS011;29904;51.058;5.378;2023-11-19T11:54:10;15.80;;;2.42;;
44228;SDS011;29904;51.058;5.378;2023-11-19T11:57:10;15.57;;;2.42;;
44228;SDS011;29904;51.058;5.378;2023-11-19T12:02:11;15.38;;;2.55;;
44228;SDS011;29904;51.058;5.378;2023-11-19T12:04:39;12.63;;;2.45;;
44228;SDS011;29904;51.058;5.378;2023-11-19T12:07:06;15.48;;;2.38;;
44228;SDS011;29904;51.058;5.378;2023-11-19T12:09:36;14.03;;;2.40;;
44228;SDS011;29904;51.058;5.378;2023-11-19T12:20:02;14.13;;;2.10;;
44228;SDS011;29904;51.058;5.378;2023-11-19T12:22:39;13.73;;;2.20;;
44228;SDS011;29904;51.058;5.378;2023-11-19T12:25:07;12.23;;;2.53;;
44228;SDS011;29904;51.058;5.378;2023-11-19T12:27:34;13.43;;;2.30;;
44228;SDS011;29904;51.058;5.378;2023-11-19T12:30:03;15.60;;;2.30;;
44228;SDS011;29904;51.058;5.378;2023-11-19T12:32:50;14.15;;;2.28;;
44228;SDS011;29904;51.058;5.378;2023-11-19T12:35:16;11.15;;;2.25;;
44228;SDS011;29904;51.058;5.378;2023-11-19T12:37:42;14.60;;;2.30;;
44228;SDS011;29904;51.058;5.378;2023-11-19T12:42:38;14.40;;;2.63;;
44228;SDS011;29904;51.058;5.378;2023-11-19T12:45:04;12.05;;;2.30;;
44228;SDS011;29904;51.058;5.378;2023-11-19T12:47:30;13.85;;;2.40;;
44228;SDS011;29904;51.058;5.378;2023-11-19T12:49:59;12.20;;;2.47;;
44228;SDS011;29904;51.058;5.378;2023-11-19T12:52:25;13.47;;;2.40;;
44228;SDS011;29904;51.058;5.378;2023-11-19T12:54:50;12.33;;;2.40;;
44228;SDS011;29904;51.058;5.378;2023-11-19T12:57:16;13.93;;;2.72;;
44228;SDS011;29904;51.058;5.378;2023-11-19T12:59:53;16.13;;;2.50;;
44228;SDS011;29904;51.058;5.378;2023-11-19T13:02:22;13.77;;;2.42;;
44228;SDS011;29904;51.058;5.378;2023-11-19T13:04:48;14.40;;;2.63;;
44228;SDS011;29904;51.058;5.378;2023-11-19T13:07:19;16.95;;;3.03;;
44228;SDS011;29904;51.058;5.378;2023-11-19T13:09:46;17.08;;;2.80;;
44228;SDS011;29904;51.058;5.378;2023-11-19T13:12:13;15.40;;;2.80;;
44228;SDS011;29904;51.058;5.378;2023-11-19T13:14:40;14.00;;;2.30;;
44228;SDS011;29904;51.058;5.378;2023-11-19T13:17:07;15.25;;;2.47;;
44228;SDS011;29904;51.058;5.378;2023-11-19T13:19:33;14.70;;;2.40;;
44228;SDS011;29904;51.058;5.378;2023-11-19T13:21:59;14.87;;;3.00;;
44228;SDS011;29904;51.058;5.378;2023-11-19T13:24:24;10.83;;;2.10;;
44228;SDS011;29904;51.058;5.378;2023-11-19T13:26:50;11.85;;;2.53;;
44228;SDS011;29904;51.058;5.378;2023-11-19T13:29:16;11.60;;;2.25;;
44228;SDS011;29904;51.058;5.378;2023-11-19T13:31:41;9.73;;;1.87;;
44228;SDS011;29904;51.058;5.378;2023-11-19T13:34:07;13.43;;;2.13;;
44228;SDS011;29904;51.058;5.378;2023-11-19T13:36:33;13.80;;;2.47;;
44228;SDS011;29904;51.058;5.378;2023-11-19T13:38:59;18.27;;;3.67;;
44228;SDS011;29904;51.058;5.378;2023-11-19T13:41:26;11.88;;;2.20;;
44228;SDS011;29904;51.058;5.378;2023-11-19T13:43:52;11.07;;;2.30;;
44228;SDS011;29904;51.058;5.378;2023-11-19T13:46:18;11.63;;;2.13;;
44228;SDS011;29904;51.058;5.378;2023-11-19T13:48:43;11.60;;;1.93;;
44228;SDS011;29904;51.058;5.378;2023-11-19T13:51:09;14.63;;;2.58;;
44228;SDS011;29904;51.058;5.378;2023-11-19T13:53:35;13.90;;;2.40;;
44228;SDS011;29904;51.058;5.378;2023-11-19T13:56:01;18.45;;;2.80;;
44228;SDS011;29904;51.058;5.378;2023-11-19T13:58:27;11.25;;;2.10;;
44228;SDS011;29904;51.058;5.378;2023-11-19T14:00:52;14.00;;;2.77;;
44228;SDS011;29904;51.058;5.378;2023-11-19T14:03:18;16.65;;;2.95;;
44228;SDS011;29904;51.058;5.378;2023-11-19T14:05:44;12.35;;;2.42;;
44228;SDS011;29904;51.058;5.378;2023-11-19T14:08:11;15.98;;;2.80;;
44228;SDS011;29904;51.058;5.378;2023-11-19T14:10:37;14.15;;;2.50;;
44228;SDS011;29904;51.058;5.378;2023-11-19T14:13:06;18.27;;;2.65;;
44228;SDS011;29904;51.058;5.378;2023-11-19T14:15:32;14.80;;;2.55;;
44228;SDS011;29904;51.058;5.378;2023-11-19T14:17:58;12.77;;;2.42;;
44228;SDS011;29904;51.058;5.378;2023-11-19T14:20:24;14.27;;;2.42;;
44228;SDS011;29904;51.058;5.378;2023-11-19T14:22:50;13.25;;;2.13;;
44228;SDS011;29904;51.058;5.378;2023-11-19T14:25:17;16.38;;;2.70;;
44228;SDS011;29904;51.058;5.378;2023-11-19T14:27:44;14.73;;;2.03;;
44228;SDS011;29904;51.058;5.378;2023-11-19T14:30:11;18.60;;;2.90;;
44228;SDS011;29904;51.058;5.378;2023-11-19T14:32:41;13.02;;;2.20;;
44228;SDS011;29904;51.058;5.378;2023-11-19T14:35:09;14.35;;;2.40;;
44228;SDS011;29904;51.058;5.378;2023-11-19T14:37:35;11.48;;;2.17;;
44228;SDS011;29904;51.058;5.378;2023-11-19T14:40:01;15.65;;;2.17;;
44228;SDS011;29904;51.058;5.378;2023-11-19T14:42:31;15.15;;;2.38;;
44228;SDS011;29904;51.058;5.378;2023-11-19T14:44:57;10.68;;;2.33;;
44228;SDS011;29904;51.058;5.378;2023-11-19T14:47:23;14.93;;;2.25;;
44228;SDS011;29904;51.058;5.378;2023-11-19T14:49:49;10.23;;;2.00;;
44228;SDS011;29904;51.058;5.378;2023-11-19T14:52:15;14.45;;;2.15;;
44228;SDS011;29904;51.058;5.378;2023-11-19T14:54:41;11.27;;;2.50;;
44228;SDS011;29904;51.058;5.378;2023-11-19T14:57:07;13.13;;;2.15;;
44228;SDS011;29904;51.058;5.378;2023-11-19T14:59:39;14.82;;;2.30;;
44228;SDS011;29904;51.058;5.378;2023-11-19T15:02:04;13.67;;;2.13;;
44228;SDS011;29904;51.058;5.378;2023-11-19T15:04:33;15.48;;;2.55;;
44228;SDS011;29904;51.058;5.378;2023-11-19T15:06:59;12.80;;;2.17;;
44228;SDS011;29904;51.058;5.378;2023-11-19T15:09:25;15.53;;;2.20;;